Time;durP1;ratioP1;P1;durP2;ratioP2;P2;SDS_P1;SDS_P2;PMS_P1;PMS_P2;Temp;Humidity;BMP_temperature;BMP_pressure;BME280_temperature;BME280_humidity;BME280_pressure;Samples;Min_cycle;Max_cycle;Signal;HPM_P1;HPM_P2
2022/07/26 00:00:18;;;;;;;13.45;4.03;;;;;;;16.09;100.00;100307.13;5027298;28;20420;-91
2022/07/26 00:02:47;;;;;;;11.18;3.72;;;;;;;16.12;100.00;100302.91;5026331;28;20420;-91
2022/07/26 00:05:16;;;;;;;10.35;3.70;;;;;;;16.02;100.00;100309.56;5012572;28;20427;-91
2022/07/26 00:07:45;;;;;;;9.85;3.90;;;;;;;16.00;100.00;100311.81;5013103;28;20431;-91
2022/07/26 00:10:15;;;;;;;10.38;4.30;;;;;;;15.98;100.00;100309.41;5022550;28;20782;-91
2022/07/26 00:12:44;;;;;;;10.43;3.72;;;;;;;15.94;100.00;100318.63;5016553;28;20417;-92
2022/07/26 00:15:12;;;;;;;10.07;3.83;;;;;;;15.93;100.00;100317.78;5012298;28;20421;-91
2022/07/26 00:17:46;;;;;;;9.07;3.92;;;;;;;15.88;100.00;100323.47;5013177;28;20771;-92
2022/07/26 00:20:14;;;;;;;12.90;3.65;;;;;;;15.92;100.00;100320.84;5000800;28;20439;-91
2022/07/26 00:22:43;;;;;;;11.43;3.97;;;;;;;16.01;100.00;100318.91;5017716;28;20414;-91
2022/07/26 00:25:11;;;;;;;14.88;3.92;;;;;;;15.89;100.00;100316.03;5014531;28;20918;-92
2022/07/26 00:27:41;;;;;;;10.60;4.10;;;;;;;15.97;100.00;100318.75;5010211;28;20785;-91
2022/07/26 00:30:11;;;;;;;9.93;3.70;;;;;;;15.94;100.00;100313.91;5003955;28;20410;-90
2022/07/26 00:32:40;;;;;;;14.83;3.83;;;;;;;16.06;100.00;100324.25;5012324;28;20425;-91
2022/07/26 00:35:09;;;;;;;12.50;3.67;;;;;;;16.04;100.00;100321.00;5014189;28;20495;-91
2022/07/26 00:37:37;;;;;;;10.70;3.60;;;;;;;16.13;100.00;100326.50;5015904;28;20433;-90
2022/07/26 00:40:07;;;;;;;11.75;3.50;;;;;;;16.09;100.00;100333.78;5013253;28;20417;-91
2022/07/26 00:42:35;;;;;;;11.63;4.27;;;;;;;16.12;100.00;100331.16;5012467;28;21311;-91
2022/07/26 00:45:07;;;;;;;13.82;3.70;;;;;;;16.07;100.00;100331.31;5006707;28;20422;-90
2022/07/26 00:47:36;;;;;;;11.27;3.42;;;;;;;15.96;100.00;100321.81;5011197;28;21142;-91
2022/07/26 00:50:07;;;;;;;10.90;3.30;;;;;;;15.98;100.00;100328.59;5010822;28;20428;-92
2022/07/26 00:52:36;;;;;;;11.13;3.03;;;;;;;16.00;100.00;100320.03;5018560;28;20420;-91
2022/07/26 00:55:06;;;;;;;13.40;3.35;;;;;;;15.98;100.00;100319.56;5020350;28;20470;-90
2022/07/26 00:57:35;;;;;;;13.20;3.53;;;;;;;15.96;100.00;100325.41;5020798;28;20436;-91
2022/07/26 01:00:09;;;;;;;10.98;3.10;;;;;;;16.02;100.00;100323.28;5009532;28;20437;-91
2022/07/26 01:02:38;;;;;;;12.68;3.22;;;;;;;15.89;100.00;100316.03;5003036;28;20417;-91
2022/07/26 01:05:07;;;;;;;12.82;3.50;;;;;;;15.96;100.00;100319.09;5009393;28;20452;-91
2022/07/26 01:07:37;;;;;;;10.10;2.97;;;;;;;15.89;100.00;100329.75;5012453;28;20422;-92
2022/07/26 01:10:10;;;;;;;8.68;2.50;;;;;;;15.90;100.00;100323.94;5009908;28;21002;-91
2022/07/26 01:12:39;;;;;;;8.45;2.88;;;;;;;15.94;100.00;100327.63;5030322;28;20431;-91
2022/07/26 01:15:11;;;;;;;8.35;2.67;;;;;;;15.94;100.00;100329.59;5010466;28;20417;-91
2022/07/26 01:17:40;;;;;;;10.85;3.15;;;;;;;15.86;100.00;100308.44;5016460;28;20432;-91
2022/07/26 01:20:10;;;;;;;7.78;2.50;;;;;;;15.88;100.00;100317.16;5009744;28;20459;-92
2022/07/26 01:22:40;;;;;;;8.73;2.80;;;;;;;15.84;100.00;100313.44;5010953;28;20424;-91
2022/07/26 01:25:10;;;;;;;6.50;2.40;;;;;;;15.90;100.00;100309.41;5019626;28;20411;-93
2022/07/26 01:27:39;;;;;;;7.63;2.50;;;;;;;15.90;100.00;100315.69;5016215;28;20460;-92
2022/07/26 01:30:10;;;;;;;11.23;2.95;;;;;;;15.91;100.00;100313.75;5018586;28;20425;-92
2022/07/26 01:32:39;;;;;;;8.93;2.92;;;;;;;15.91;100.00;100309.09;5005503;28;20429;-91
2022/07/26 01:35:08;;;;;;;8.18;2.60;;;;;;;15.87;100.00;100313.63;5022641;28;20416;-93
2022/07/26 01:37:37;;;;;;;8.57;2.67;;;;;;;15.88;100.00;100315.22;5003871;28;20413;-92
2022/07/26 01:40:09;;;;;;;8.90;2.83;;;;;;;15.86;100.00;100305.72;5011212;28;20433;-92
2022/07/26 01:42:39;;;;;;;8.63;2.53;;;;;;;16.00;100.00;100311.00;5018313;28;20419;-91
2022/07/26 01:45:09;;;;;;;11.30;2.85;;;;;;;15.88;100.00;100319.91;5011472;28;20423;-93
2022/07/26 01:47:38;;;;;;;7.53;2.70;;;;;;;15.86;100.00;100312.00;5008832;28;20420;-91
2022/07/26 01:50:09;;;;;;;9.93;3.10;;;;;;;15.86;100.00;100314.72;5010617;28;20417;-91
2022/07/26 01:52:38;;;;;;;9.65;2.60;;;;;;;15.83;100.00;100304.41;5022670;28;20799;-91
2022/07/26 01:55:09;;;;;;;10.32;2.65;;;;;;;15.86;100.00;100320.22;5014123;28;20413;-92
2022/07/26 01:57:37;;;;;;;9.93;2.60;;;;;;;15.88;100.00;100317.97;5013660;28;20424;-91
2022/07/26 02:00:07;;;;;;;10.35;2.90;;;;;;;15.83;100.00;100314.59;5012628;28;20427;-92
2022/07/26 02:02:36;;;;;;;11.70;2.80;;;;;;;15.81;100.00;100321.19;5013995;28;20428;-91
2022/07/26 02:05:04;;;;;;;13.48;2.97;;;;;;;15.80;100.00;100313.31;5013381;28;20412;-91
2022/07/26 02:07:39;;;;;;;9.85;2.70;;;;;;;15.86;100.00;100322.16;5013117;28;20425;-92
2022/07/26 02:10:10;;;;;;;8.98;2.70;;;;;;;15.79;100.00;100311.66;5013260;28;20417;-91
2022/07/26 02:12:39;;;;;;;7.80;2.60;;;;;;;15.77;100.00;100313.91;5023344;28;20419;-91
2022/07/26 02:15:09;;;;;;;7.57;2.53;;;;;;;15.64;100.00;100311.00;5012201;28;20413;-92
2022/07/26 02:17:38;;;;;;;11.57;2.67;;;;;;;15.68;100.00;100321.34;5010754;28;20426;-91
2022/07/26 02:20:08;;;;;;;9.52;2.80;;;;;;;15.72;100.00;100327.81;5019331;28;20432;-90
2022/07/26 02:22:37;;;;;;;7.22;2.67;;;;;;;15.63;100.00;100325.03;5024545;28;20925;-90
2022/07/26 02:25:06;;;;;;;7.90;2.60;;;;;;;15.58;100.00;100322.47;5015842;28;20489;-91
2022/07/26 02:27:37;;;;;;;10.43;2.45;;;;;;;15.50;100.00;100326.03;5032825;28;20431;-91
2022/07/26 02:30:07;;;;;;;9.85;2.88;;;;;;;15.37;100.00;100327.75;5016157;28;20425;-91
2022/07/26 02:32:36;;;;;;;9.52;2.70;;;;;;;15.32;100.00;100323.25;5016253;28;20419;-91
2022/07/26 02:35:05;;;;;;;7.50;2.40;;;;;;;15.35;100.00;100327.28;5004616;28;20417;-92
2022/07/26 02:37:34;;;;;;;7.83;2.47;;;;;;;15.32;100.00;100334.22;5011725;28;20886;-91
2022/07/26 02:40:03;;;;;;;10.25;2.25;;;;;;;15.33;100.00;100329.53;5006368;28;20923;-92
2022/07/26 02:42:32;;;;;;;8.60;2.55;;;;;;;15.20;100.00;100323.88;5020206;28;20935;-91
2022/07/26 02:45:02;;;;;;;10.70;2.50;;;;;;;15.28;100.00;100336.00;5008138;28;20422;-91
2022/07/26 02:47:32;;;;;;;9.27;2.78;;;;;;;15.28;100.00;100341.47;5028855;28;20427;-92
2022/07/26 02:50:00;;;;;;;9.85;2.40;;;;;;;15.19;100.00;100332.41;5013215;28;20774;-92
2022/07/26 02:52:29;;;;;;;8.52;2.28;;;;;;;15.12;100.00;100332.88;5018332;28;20888;-91
2022/07/26 02:54:58;;;;;;;8.40;2.55;;;;;;;15.09;100.00;100334.34;5018507;28;20416;-91
2022/07/26 02:57:28;;;;;;;8.55;2.53;;;;;;;15.09;100.00;100348.06;5013143;28;20785;-92
2022/07/26 02:59:56;;;;;;;10.03;2.50;;;;;;;15.06;100.00;100331.44;5016812;28;20972;-92
2022/07/26 03:02:27;;;;;;;10.40;2.30;;;;;;;14.99;100.00;100337.38;5020557;28;20408;-92
2022/07/26 03:04:55;;;;;;;7.68;2.50;;;;;;;15.06;100.00;100347.88;5005060;28;20793;-92
2022/07/26 03:07:24;;;;;;;7.00;2.78;;;;;;;15.08;100.00;100342.88;5027192;28;20416;-91
2022/07/26 03:09:53;;;;;;;7.77;2.57;;;;;;;14.99;100.00;100342.84;5018988;28;20426;-91
2022/07/26 03:12:22;;;;;;;9.95;2.65;;;;;;;15.02;100.00;100346.88;5020321;28;20774;-90
2022/07/26 03:14:51;;;;;;;10.00;2.65;;;;;;;14.93;100.00;100346.88;5022145;28;20433;-91
2022/07/26 03:17:20;;;;;;;7.78;2.33;;;;;;;14.90;100.00;100342.84;5016175;28;21013;-91
2022/07/26 03:19:50;;;;;;;10.13;2.70;;;;;;;14.85;100.00;100350.38;5009095;28;20422;-91
2022/07/26 03:22:19;;;;;;;9.07;2.75;;;;;;;14.88;100.00;100355.22;4993337;28;20422;-91
2022/07/26 03:24:48;;;;;;;10.43;2.63;;;;;;;14.91;100.00;100363.59;5012620;28;20436;-91
2022/07/26 03:27:17;;;;;;;12.50;2.70;;;;;;;14.78;100.00;100356.31;5040760;28;20419;-91
2022/07/26 03:29:46;;;;;;;11.98;2.70;;;;;;;14.81;100.00;100355.69;5018981;28;20416;-90
2022/07/26 03:32:15;;;;;;;10.02;2.65;;;;;;;14.68;100.00;100359.31;5012492;28;20425;-90
2022/07/26 03:34:43;;;;;;;9.50;2.60;;;;;;;14.67;100.00;100364.00;5012231;28;20428;-91
2022/07/26 03:37:13;;;;;;;8.07;2.77;;;;;;;14.73;100.00;100354.50;5012343;28;20417;-91
2022/07/26 03:39:42;;;;;;;9.95;2.67;;;;;;;14.73;100.00;100356.44;5005058;28;20420;-90
2022/07/26 03:42:12;;;;;;;8.73;2.40;;;;;;;14.62;100.00;100367.69;5024085;28;20415;-90
2022/07/26 03:44:40;;;;;;;8.48;2.78;;;;;;;14.70;100.00;100368.03;5026747;28;20425;-91
2022/07/26 03:47:09;;;;;;;9.82;2.65;;;;;;;14.74;100.00;100363.56;5020025;28;20426;-90
2022/07/26 03:49:39;;;;;;;9.65;2.88;;;;;;;14.79;100.00;100360.69;5012515;28;20435;-90
2022/07/26 03:52:09;;;;;;;10.85;3.10;;;;;;;14.81;100.00;100363.09;5012047;28;20778;-90
2022/07/26 03:54:39;;;;;;;12.80;2.70;;;;;;;14.87;100.00;100364.56;5004529;28;20428;-90
2022/07/26 03:57:07;;;;;;;9.53;2.80;;;;;;;14.95;100.00;100372.00;5028123;28;20419;-91
2022/07/26 03:59:36;;;;;;;9.82;2.72;;;;;;;14.92;100.00;100367.16;5022436;28;20790;-91
2022/07/26 04:02:04;;;;;;;10.10;2.90;;;;;;;15.06;100.00;100370.59;5011905;28;20432;-91
2022/07/26 04:04:33;;;;;;;9.95;3.03;;;;;;;15.08;100.00;100359.31;5011285;28;20412;-91
2022/07/26 04:07:02;;;;;;;13.55;3.22;;;;;;;15.07;100.00;100365.94;5012173;28;20426;-91
2022/07/26 04:09:31;;;;;;;12.27;3.22;;;;;;;15.13;100.00;100368.22;5018063;28;20433;-91
2022/07/26 04:12:02;;;;;;;12.33;3.20;;;;;;;15.13;100.00;100372.88;5014058;28;20879;-91
2022/07/26 04:14:31;;;;;;;14.25;3.22;;;;;;;15.08;100.00;100359.31;5020465;28;20412;-91
2022/07/26 04:17:00;;;;;;;8.57;2.67;;;;;;;15.19;100.00;100377.09;5009789;28;20427;-91
2022/07/26 04:19:28;;;;;;;11.00;3.10;;;;;;;15.20;100.00;100372.41;4994756;28;20429;-90
2022/07/26 04:21:56;;;;;;;10.70;2.60;;;;;;;15.24;100.00;100362.41;5013900;28;20431;-89
2022/07/26 04:24:25;;;;;;;11.80;3.00;;;;;;;15.29;100.00;100376.78;5032889;28;20431;-91
2022/07/26 04:26:53;;;;;;;9.70;2.97;;;;;;;15.28;100.00;100374.38;5024736;28;20420;-90
2022/07/26 04:29:24;;;;;;;11.82;2.88;;;;;;;15.36;100.00;100379.06;5015007;28;20411;-90
2022/07/26 04:31:53;;;;;;;6.82;2.50;;;;;;;15.38;100.00;100371.31;5016372;28;20424;-91
2022/07/26 04:34:22;;;;;;;8.98;2.67;;;;;;;15.46;100.00;100375.22;5003741;28;20427;-90
2022/07/26 04:36:51;;;;;;;8.80;2.80;;;;;;;15.42;100.00;100375.03;5024972;28;20418;-90
2022/07/26 04:39:23;;;;;;;9.40;2.70;;;;;;;15.55;100.00;100378.78;5012375;28;20428;-91
2022/07/26 04:41:52;;;;;;;9.15;2.88;;;;;;;15.55;100.00;100369.72;5010955;28;20801;-90
2022/07/26 04:44:21;;;;;;;8.43;2.63;;;;;;;15.51;100.00;100369.56;5015819;28;20431;-90
2022/07/26 04:46:50;;;;;;;10.20;2.90;;;;;;;15.53;100.00;100367.31;5006814;28;20424;-91
2022/07/26 04:49:19;;;;;;;11.03;2.80;;;;;;;15.59;100.00;100360.56;5007048;28;20419;-89
2022/07/26 04:51:47;;;;;;;8.90;2.50;;;;;;;15.66;100.00;100371.03;5013500;28;20412;-91
2022/07/26 04:54:19;;;;;;;8.10;2.85;;;;;;;15.75;100.00;100374.59;5013927;28;20784;-90
2022/07/26 04:56:47;;;;;;;8.77;2.78;;;;;;;15.75;100.00;100371.84;5019769;28;20927;-91
2022/07/26 04:59:17;;;;;;;11.65;2.90;;;;;;;15.75;100.00;100363.59;5011733;28;20425;-90
2022/07/26 05:01:45;;;;;;;12.47;3.13;;;;;;;15.77;100.00;100361.38;5025773;28;20514;-90
2022/07/26 05:04:15;;;;;;;9.27;2.70;;;;;;;15.81;100.00;100372.50;5009981;28;20412;-91
2022/07/26 05:06:44;;;;;;;10.10;2.80;;;;;;;15.79;100.00;100378.31;5009440;28;20425;-90
2022/07/26 05:09:12;;;;;;;8.20;2.65;;;;;;;15.83;100.00;100384.00;5017385;28;20422;-90
2022/07/26 05:11:40;;;;;;;10.70;2.70;;;;;;;15.83;100.00;100380.44;5010091;28;20909;-89
2022/07/26 05:14:09;;;;;;;11.02;3.22;;;;;;;15.89;100.00;100390.13;5002389;28;20429;-89
2022/07/26 05:16:37;;;;;;;11.65;2.78;;;;;;;15.97;100.00;100386.56;5005685;28;20429;-91
2022/07/26 05:19:06;;;;;;;11.68;2.78;;;;;;;15.91;100.00;100374.94;5008850;28;20409;-90
2022/07/26 05:21:35;;;;;;;12.77;2.90;;;;;;;15.99;100.00;100392.53;5017925;28;20437;-89
2022/07/26 05:24:09;;;;;;;10.93;3.00;;;;;;;15.88;100.00;100391.25;5008097;28;20428;-89
2022/07/26 05:26:37;;;;;;;16.95;3.40;;;;;;;15.75;100.00;100388.28;5011455;28;20420;-89
2022/07/26 05:29:05;;;;;;;13.93;3.53;;;;;;;15.84;100.00;100402.06;5011081;28;20420;-89
2022/07/26 05:31:34;;;;;;;11.85;3.45;;;;;;;15.69;100.00;100391.50;5009155;28;20424;-88
2022/07/26 05:34:03;;;;;;;9.10;2.97;;;;;;;15.71;100.00;100400.25;5021687;28;20500;-90
2022/07/26 05:36:31;;;;;;;9.17;2.83;;;;;;;15.68;100.00;100404.44;5002359;28;20509;-90
2022/07/26 05:39:01;;;;;;;7.15;2.50;;;;;;;15.58;100.00;100389.09;5008849;28;20424;-89
2022/07/26 05:41:30;;;;;;;9.35;2.38;;;;;;;15.52;100.00;100397.78;5009217;28;20430;-90
2022/07/26 05:43:58;;;;;;;6.00;2.13;;;;;;;15.52;100.00;100400.53;5009392;28;20421;-90
2022/07/26 05:46:26;;;;;;;6.45;2.25;;;;;;;15.45;100.00;100401.84;5009285;28;21084;-89
2022/07/26 05:48:55;;;;;;;4.78;2.10;;;;;;;15.45;100.00;100395.53;5024293;28;20785;-91
2022/07/26 05:51:23;;;;;;;9.35;2.50;;;;;;;15.46;100.00;100397.16;5005419;28;20430;-89
2022/07/26 05:53:51;;;;;;;8.20;2.57;;;;;;;15.47;100.00;100404.25;5007456;28;20425;-90
2022/07/26 05:56:21;;;;;;;7.18;2.47;;;;;;;15.45;100.00;100407.31;5024564;28;20433;-89
2022/07/26 05:58:50;;;;;;;6.65;2.55;;;;;;;15.51;100.00;100418.13;5009048;28;20437;-90
2022/07/26 06:01:18;;;;;;;6.33;2.77;;;;;;;15.57;100.00;100425.06;5008330;28;20466;-90
2022/07/26 06:03:48;;;;;;;7.20;2.67;;;;;;;15.57;100.00;100423.13;5009265;28;20431;-89
2022/07/26 06:06:17;;;;;;;4.50;2.28;;;;;;;15.38;100.00;100398.72;5009396;28;20417;-91
2022/07/26 06:08:45;;;;;;;5.25;2.10;;;;;;;15.51;100.00;100418.13;4998359;28;20438;-90
2022/07/26 06:11:14;;;;;;;4.93;2.00;;;;;;;15.36;100.00;100420.19;5002473;28;20426;-90
2022/07/26 06:13:44;;;;;;;5.18;2.10;;;;;;;15.38;100.00;100423.41;5007689;28;20421;-91
2022/07/26 06:16:13;;;;;;;5.35;2.30;;;;;;;15.29;100.00;100423.38;5007548;28;20902;-90
2022/07/26 06:18:42;;;;;;;5.57;1.90;;;;;;;15.32;100.00;100429.38;5008567;28;20822;-90
2022/07/26 06:21:11;;;;;;;8.02;2.45;;;;;;;15.42;100.00;100429.06;5006447;28;20436;-89
2022/07/26 06:23:43;;;;;;;4.90;2.00;;;;;;;15.33;100.00;100429.06;5006248;28;20431;-90
2022/07/26 06:26:12;;;;;;;4.45;1.88;;;;;;;15.33;100.00;100425.50;5005154;28;20479;-89
2022/07/26 06:28:42;;;;;;;5.55;2.05;;;;;;;15.46;100.00;100432.78;5003791;28;20409;-90
2022/07/26 06:31:12;;;;;;;5.32;2.30;;;;;;;15.50;100.00;100438.47;5019493;28;20454;-90
2022/07/26 06:33:41;;;;;;;3.97;1.95;;;;;;;15.51;100.00;100431.81;5010033;28;20826;-90
2022/07/26 06:36:10;;;;;;;7.82;2.08;;;;;;;15.61;100.00;100437.81;5017280;28;20426;-90
2022/07/26 06:38:39;;;;;;;5.30;2.22;;;;;;;15.73;100.00;100448.19;5019984;28;20432;-91
2022/07/26 06:41:07;;;;;;;3.03;1.90;;;;;;;15.84;100.00;100447.88;5026130;28;20437;-91
2022/07/26 06:43:36;;;;;;;4.85;1.90;;;;;;;15.87;100.00;100450.00;5030383;28;20436;-91
2022/07/26 06:46:04;;;;;;;6.18;2.10;;;;;;;15.93;100.00;100448.72;5007456;28;20442;-90
2022/07/26 06:48:35;;;;;;;4.32;1.90;;;;;;;15.89;100.00;100455.97;5029415;28;20447;-89
2022/07/26 06:51:03;;;;;;;6.15;1.90;;;;;;;15.81;100.00;100455.66;5012410;28;20428;-90
2022/07/26 06:53:32;;;;;;;4.68;2.10;;;;;;;15.90;100.00;100452.91;5012036;28;20433;-91
2022/07/26 06:56:01;;;;;;;6.13;2.20;;;;;;;15.97;100.00;100461.47;5010570;28;20425;-91
2022/07/26 06:58:31;;;;;;;3.93;2.30;;;;;;;16.12;100.00;100457.44;5027569;28;20512;-91
2022/07/26 07:01:00;;;;;;;3.83;1.83;;;;;;;16.10;100.00;100453.41;5012761;28;20443;-90
2022/07/26 07:03:31;;;;;;;4.70;2.15;;;;;;;16.20;100.00;100460.50;5033929;28;20775;-90
2022/07/26 07:06:02;;;;;;;4.20;1.85;;;;;;;16.27;100.00;100453.41;5030893;28;20416;-90
2022/07/26 07:08:36;;;;;;;5.53;2.17;;;;;;;16.31;100.00;100459.88;5029683;28;20424;-91
2022/07/26 07:11:05;;;;;;;5.30;2.20;;;;;;;16.39;100.00;100458.25;5021287;28;20438;-90
2022/07/26 07:13:39;;;;;;;4.25;2.00;;;;;;;16.38;100.00;100464.03;5028691;28;20432;-91
2022/07/26 07:16:10;;;;;;;6.85;2.13;;;;;;;16.32;100.00;100460.66;5012847;28;20427;-93
2022/07/26 07:19:05;;;;;;;6.25;2.20;;;;;;;16.36;100.00;100467.13;5008703;28;20436;-91
2022/07/26 07:21:35;;;;;;;5.80;2.38;;;;;;;16.49;100.00;100466.16;5012320;28;20444;-92
2022/07/26 07:24:04;;;;;;;5.38;2.20;;;;;;;16.69;100.00;100469.34;5015668;28;20807;-93
2022/07/26 07:26:37;;;;;;;4.55;2.10;;;;;;;16.96;100.00;100465.44;5022577;28;20448;-92
2022/07/26 07:29:06;;;;;;;3.97;2.20;;;;;;;17.30;100.00;100452.69;5027488;28;20424;-92
2022/07/26 07:31:35;;;;;;;3.75;2.00;;;;;;;17.29;100.00;100455.75;5031480;28;20429;-91
2022/07/26 07:34:05;;;;;;;6.75;2.28;;;;;;;17.54;100.00;100456.75;5021594;28;20392;-93
2022/07/26 07:36:35;;;;;;;6.20;2.20;;;;;;;17.73;100.00;100463.75;5022885;28;20539;-91
2022/07/26 07:39:04;;;;;;;4.35;1.70;;;;;;;17.55;100.00;100460.31;5014596;28;20437;-92
2022/07/26 07:41:35;;;;;;;5.57;2.00;;;;;;;17.51;100.00;100476.66;5032266;28;20428;-91
2022/07/26 07:44:10;;;;;;;4.80;1.70;;;;;;;17.04;100.00;100468.47;5002956;28;20774;-92
2022/07/26 07:46:41;;;;;;;3.53;1.55;;;;;;;16.92;100.00;100478.22;5000545;28;20454;-94
2022/07/26 07:49:14;;;;;;;6.18;1.88;;;;;;;16.84;100.00;100488.06;4994359;28;20440;-90
2022/07/26 07:51:44;;;;;;;4.93;1.85;;;;;;;16.79;100.00;100502.00;4990797;28;20454;-91
2022/07/26 07:54:14;;;;;;;5.38;1.77;;;;;;;16.62;100.00;100513.78;4993869;28;20436;-91
2022/07/26 07:56:43;;;;;;;2.95;1.30;;;;;;;16.42;100.00;100512.53;4981425;28;20432;-92
2022/07/26 07:59:15;;;;;;;2.15;0.90;;;;;;;16.25;100.00;100513.31;4980594;28;20428;-91
2022/07/26 08:01:45;;;;;;;2.10;0.80;;;;;;;16.20;100.00;100516.25;4976036;28;20781;-90
2022/07/26 08:04:16;;;;;;;2.90;1.10;;;;;;;16.17;100.00;100519.59;4982525;28;20442;-93
2022/07/26 08:06:48;;;;;;;4.25;1.10;;;;;;;16.24;100.00;100528.19;4984023;28;20498;-92
2022/07/26 08:09:20;;;;;;;2.75;0.93;;;;;;;16.20;100.00;100515.41;5000500;28;20441;-92
2022/07/26 08:11:50;;;;;;;2.58;0.82;;;;;;;16.25;100.00;100518.81;4990849;28;20437;-89
2022/07/26 08:14:21;;;;;;;1.92;0.80;;;;;;;16.42;100.00;100528.19;4989849;28;20443;-91
2022/07/26 08:17:00;;;;;;;4.53;0.80;;;;;;;16.60;100.00;100532.56;4994641;28;20428;-91
2022/07/26 08:19:29;;;;;;;3.00;0.80;;;;;;;16.67;100.00;100532.06;5003239;28;20447;-91
2022/07/26 08:22:07;;;;;;;2.20;0.80;;;;;;;16.70;100.00;100530.63;5009833;28;20427;-91
2022/07/26 08:24:51;;;;;;;1.75;0.70;;;;;;;17.17;100.00;100527.94;4990929;28;20439;-91
2022/07/26 08:27:23;;;;;;;2.87;0.67;;;;;;;17.25;100.00;100529.88;4992661;28;20812;-92
2022/07/26 08:29:51;;;;;;;2.53;0.73;;;;;;;17.47;100.00;100536.28;5001838;28;20440;-92
2022/07/26 08:32:26;;;;;;;2.53;0.65;;;;;;;17.50;100.00;100532.84;4995791;28;20436;-92
2022/07/26 08:34:55;;;;;;;3.10;0.90;;;;;;;17.74;100.00;100545.19;4995399;28;20440;-89
2022/07/26 08:37:25;;;;;;;5.22;2.00;;;;;;;17.54;100.00;100555.00;4983318;28;20462;-91
2022/07/26 08:39:55;;;;;;;2.55;0.77;;;;;;;17.14;100.00;100554.16;4988641;28;20532;-91
2022/07/26 08:42:24;;;;;;;1.77;0.60;;;;;;;17.00;100.00;100564.56;4995595;28;20432;-92
2022/07/26 08:44:53;;;;;;;2.57;0.80;;;;;;;16.71;100.00;100548.69;5003427;28;20915;-91
2022/07/26 08:47:23;;;;;;;4.47;0.60;;;;;;;16.90;100.00;100553.88;4982208;28;20431;-92
2022/07/26 08:50:44;;;;;;;4.35;0.90;;;;;;;16.95;100.00;100565.50;4984435;28;21694;-92
2022/07/26 08:53:16;;;;;;;1.85;0.80;;;;;;;17.31;100.00;100563.50;4977340;28;20442;-90
2022/07/26 08:55:44;;;;;;;1.63;0.70;;;;;;;17.47;100.00;100563.78;4994625;28;21213;-90
2022/07/26 08:58:13;;;;;;;3.10;0.70;;;;;;;17.60;100.00;100576.50;4989169;28;20629;-89
2022/07/26 09:00:44;;;;;;;2.17;0.70;;;;;;;17.63;100.00;100570.31;4980662;28;20436;-91
2022/07/26 09:03:25;;;;;;;2.40;0.70;;;;;;;17.77;100.00;100581.13;4989323;28;20941;-89
2022/07/26 09:05:54;;;;;;;2.75;0.60;;;;;;;17.72;100.00;100578.56;4990865;28;20444;-92
2022/07/26 09:08:26;;;;;;;2.53;0.70;;;;;;;18.01;100.00;100572.28;4985474;28;20447;-91
2022/07/26 09:10:55;;;;;;;1.83;0.60;;;;;;;17.82;100.00;100583.69;4980379;28;20444;-90
2022/07/26 09:13:25;;;;;;;2.35;0.65;;;;;;;17.82;100.00;100585.63;4983949;28;20787;-92
2022/07/26 09:16:18;;;;;;;3.75;0.70;;;;;;;17.44;100.00;100600.19;4990921;28;20448;-91
2022/07/26 09:18:47;;;;;;;2.75;0.70;;;;;;;17.28;100.00;100600.72;4985029;28;20489;-89
2022/07/26 09:21:35;;;;;;;3.22;0.73;;;;;;;17.16;100.00;100612.38;4977088;28;20435;-92
2022/07/26 09:24:11;;;;;;;1.50;0.50;;;;;;;16.86;100.00;100622.41;4989888;28;20423;-90
2022/07/26 09:27:03;;;;;;;1.75;0.50;;;;;;;16.61;100.00;100626.75;4988545;28;20445;-91
2022/07/26 09:29:42;;;;;;;1.73;0.50;;;;;;;16.48;100.00;100615.59;5000427;28;20425;-91
2022/07/26 09:32:19;;;;;;;2.45;0.60;;;;;;;16.44;100.00;100625.59;4972569;28;21704;-90
2022/07/26 09:34:49;;;;;;;1.73;0.60;;;;;;;16.62;100.00;100620.94;4997409;28;20432;-92
2022/07/26 09:37:21;;;;;;;3.67;0.57;;;;;;;16.85;100.00;100623.56;4996845;28;21417;-91
2022/07/26 09:40:06;;;;;;;1.30;0.50;;;;;;;17.23;100.00;100625.63;4992082;28;20439;-89
2022/07/26 09:42:54;;;;;;;1.25;0.52;;;;;;;17.53;100.00;100625.72;4971366;28;20460;-89
2022/07/26 09:45:23;;;;;;;2.00;0.57;;;;;;;17.75;100.00;100627.44;4975783;28;20938;-90
2022/07/26 09:47:56;;;;;;;4.32;1.45;;;;;;;17.73;100.00;100626.16;4965434;28;20997;-92
2022/07/26 09:50:28;;;;;;;2.85;1.00;;;;;;;18.08;100.00;100632.34;4995323;28;21298;-91
2022/07/26 09:53:07;;;;;;;1.67;0.60;;;;;;;18.25;100.00;100627.88;4982699;28;20841;-92
2022/07/26 09:55:58;;;;;;;2.03;0.60;;;;;;;18.68;100.00;100632.28;4976834;28;20467;-90
2022/07/26 09:58:30;;;;;;;2.40;0.50;;;;;;;18.24;100.00;100640.03;4981803;28;20443;-92
2022/07/26 10:00:59;;;;;;;2.10;0.50;;;;;;;17.74;100.00;100652.53;4978668;28;21135;-90
2022/07/26 10:03:36;;;;;;;2.08;0.50;;;;;;;17.50;100.00;100659.41;4982877;28;20420;-91
2022/07/26 10:06:08;;;;;;;3.10;0.63;;;;;;;17.09;100.00;100658.00;4977492;28;20521;-90
2022/07/26 10:08:42;;;;;;;1.88;0.70;;;;;;;16.96;100.00;100662.56;4990088;28;20439;-92
2022/07/26 10:11:18;;;;;;;1.55;0.50;;;;;;;16.88;100.00;100675.13;5001861;28;20435;-89
2022/07/26 10:13:57;;;;;;;3.40;0.70;;;;;;;17.53;100.00;100679.97;4981976;28;20443;-94
2022/07/26 10:16:33;;;;;;;2.83;0.60;;;;;;;17.63;100.00;100676.84;4974593;28;20436;-89
2022/07/26 10:19:03;;;;;;;2.63;0.50;;;;;;;17.74;100.00;100678.09;4987157;28;20947;-92
2022/07/26 10:21:36;;;;;;;1.92;0.60;;;;;;;17.59;100.00;100684.13;4983484;28;20433;-92
2022/07/26 10:24:29;;;;;;;1.95;0.60;;;;;;;17.98;100.00;100679.50;4987047;28;21221;-90
2022/07/26 10:27:08;;;;;;;2.97;0.70;;;;;;;17.63;100.00;100680.41;4974135;28;20432;-91
2022/07/26 10:29:37;;;;;;;3.60;1.58;;;;;;;17.54;100.00;100690.63;4982843;28;20589;-89
2022/07/26 10:32:18;;;;;;;7.25;2.83;;;;;;;17.88;100.00;100696.38;4988970;28;21264;-90
2022/07/26 10:34:50;;;;;;;4.20;1.65;;;;;;;18.27;100.00;100692.53;5007991;28;20431;-89
2022/07/26 10:37:28;;;;;;;2.45;0.70;;;;;;;18.49;100.00;100682.34;4984194;28;20462;-90
2022/07/26 10:40:21;;;;;;;2.08;0.60;;;;;;;18.68;100.00;100687.41;4981751;28;21790;-90
2022/07/26 10:43:10;;;;;;;0.93;0.40;;;;;;;18.90;100.00;100686.31;4986622;28;20432;-90
2022/07/26 10:45:39;;;;;;;0.90;0.50;;;;;;;18.68;100.00;100692.91;4977800;28;20424;-91
2022/07/26 10:48:14;;;;;;;3.20;0.68;;;;;;;18.43;100.00;100689.97;4977378;28;20441;-91
2022/07/26 10:50:49;;;;;;;2.60;0.50;;;;;;;18.67;100.00;100689.38;4985320;28;20442;-90
2022/07/26 10:53:23;;;;;;;1.58;0.60;;;;;;;18.83;100.00;100697.84;4998839;28;20998;-90
2022/07/26 10:55:56;;;;;;;2.55;0.70;;;;;;;18.76;100.00;100692.06;4984167;28;20429;-92
2022/07/26 10:58:27;;;;;;;1.83;0.60;;;;;;;18.45;100.00;100707.00;4985035;28;20431;-89
2022/07/26 11:00:57;;;;;;;3.10;0.90;;;;;;;18.55;100.00;100696.72;4974353;28;20459;-90
2022/07/26 11:03:36;;;;;;;1.80;0.60;;;;;;;18.59;100.00;100725.22;4993136;28;20436;-90
2022/07/26 11:06:12;;;;;;;3.15;0.65;;;;;;;18.45;100.00;100720.78;5001784;28;20520;-90
2022/07/26 11:08:43;;;;;;;3.65;0.68;;;;;;;18.00;100.00;100707.53;4987618;28;20451;-92
2022/07/26 11:11:26;;;;;;;2.63;0.70;;;;;;;17.74;100.00;100719.38;4989973;28;20865;-89
2022/07/26 11:14:06;;;;;;;4.75;2.15;;;;;;;17.65;100.00;100733.19;5008588;28;20438;-89
2022/07/26 11:16:38;;;;;;;6.40;2.45;;;;;;;17.75;100.00;100725.72;4978553;28;20803;-88
2022/07/26 11:19:15;;;;;;;2.90;0.70;;;;;;;17.76;100.00;100730.91;4990276;28;20968;-89
2022/07/26 11:21:55;;;;;;;2.72;0.80;;;;;;;17.98;100.00;100731.81;4981185;28;20437;-89
2022/07/26 11:24:25;;;;;;;1.98;0.77;;;;;;;17.97;100.00;100733.78;4990267;28;20432;-88
2022/07/26 11:26:54;;;;;;;2.95;0.60;;;;;;;17.91;100.00;100739.75;4995445;28;20431;-90
2022/07/26 11:29:28;;;;;;;2.35;0.75;;;;;;;17.82;100.00;100739.78;4989565;28;20429;-89
2022/07/26 11:32:01;;;;;;;1.98;0.60;;;;;;;17.76;100.00;100744.66;5003661;28;20546;-89